NCAR-RAP Real-Time Weather Data

Output produced by METARs form (12 August 2020  18:35 UTC)
found at http://weather.rap.ucar.edu/surface/
 
KMOB 121756Z 03006KT 10SM BKN036 BKN090 BKN250 31/23 A3003 RMK AO2 SLP164 T03110233 10328 20222 58007 $
KMOB 121726Z 02007G16KT 350V080 10SM BKN030 BKN060 BKN250 32/25 A3004 RMK AO2 T03220250 $
KMOB 121656Z 33012KT 10SM BKN023 BKN050 BKN250 32/24 A3004 RMK AO2 SLP170 T03170244 $
KMOB 121632Z 35012KT 10SM BKN023 BKN050 BKN250 31/25 A3005 RMK AO2 T03110250 $
KMOB 121556Z 32013KT 10SM FEW020 SCT050 BKN200 31/24 A3006 RMK AO2 SLP175 T03060244 $
KMOB 121456Z VRB04KT 10SM FEW050 FEW200 29/24 A3005 RMK AO2 SLP172 T02890244 51008 $
KMOB 121356Z COR VRB04KT 10SM FEW050 FEW200 26/23 A3005 RMK AO2 SLP173 T02610228 $
KMOB 121256Z 08005KT 10SM FEW013 FEW200 24/23 A3004 RMK AO2 SLP169 T02440228
KMOB 121156Z 04005KT 7SM FEW004 FEW013 SCT200 22/22 A3003 RMK AO2 SLP164 70005 T02220217 10222 20217 53016
KMOB 121136Z 04005KT 7SM FEW004 SCT013 BKN200 22/22 A3003 RMK AO2 T02170217
KMOB 121121Z 35007KT 7SM BKN013 BKN050 BKN250 22/22 A3002 RMK AO2 T02170217
KMOB 121056Z 35007KT 7SM FEW010 SCT250 22/22 A3001 RMK AO2 PRESRR SLP160 T02170217
KMOB 120956Z AUTO 07004KT 10SM CLR 22/22 A2997 RMK AO2 SLP144 T02220222 TSNO
KMOB 120856Z AUTO 00000KT 10SM CLR 22/22 A2998 RMK AO2 SLP147 T02220222 58011
KMOB 120815Z AUTO 00000KT 10SM SCT009 22/22 A3000 RMK AO2 T02220222
KMOB 120805Z AUTO 26003KT 10SM BKN010 22/22 A3001 RMK AO2 T02220222
KMOB 120756Z AUTO 29003KT 10SM SCT009 22/22 A3001 RMK AO2 SLP159 T02220222
KMOB 120749Z AUTO 00000KT 10SM SCT009 22/22 A3001 RMK AO2 T02220222
KMOB 120656Z AUTO 32004KT 10SM CLR 22/22 A3001 RMK AO2 SLP159 T02220222
KMOB 120556Z AUTO 28005KT 10SM CLR 22/22 A3001 RMK AO2 SLP159 60005 T02220222 10306 20222 403440222 58015
KMOB 120456Z AUTO 03004KT 10SM CLR 23/23 A3003 RMK AO2 SLP167 T02330228
KMOB 120356Z 11004KT 10SM SCT100 23/23 A3004 RMK AO2 SLP169 T02330228
KMOB 120256Z 08007KT 10SM FEW020 FEW080 23/23 A3005 RMK AO2 SLP174 CB DSNT ALQDS 60005 T02330228 50001
KMOB 120156Z 13008KT 7SM FEW028 SCT075 BKN090 23/22 A3006 RMK AO2 PK WND 08038/0103 LTG DSNT ALQDS RAB07E45 SLP176 CB DSNT ALQDS P0005 T02280222
KMOB 120129Z 08014G36KT 7SM -RA FEW013 BKN043 OVC075 23/22 A3007 RMK AO2 PK WND 08038/0103 LTG DSNT ALQDS RAB07 CB DSNT ALQDS P0005 T02280222
KMOB 120116Z 09014G31KT 7SM VCTS RA SCT015CB BKN030 OVC041 23/22 A3008 RMK AO2 PK WND 08038/0103 LTG DSNT N-SE RAB07 FRQ LTGICCG E-SE TS VC E-SE MOV SW CB DSNT ALQDS P0001 T02280222
KMOB 120056Z 07021G40KT 7SM VCTS BKN027CB BKN035 BKN060 24/21 A3007 RMK AO2 PK WND 09040/0048 LTG DSNT N-SE SLP178 FRQ LTGICCG E TS VC E MOV SW CB DSNT ALQDS VCSH NE T02440211
KMOB 120051Z 08022G40KT 7SM VCTS BKN027CB BKN035 BKN060 25/21 A3005 RMK AO2 PK WND 09040/0048 LTG DSNT N-SE PRESRR FRQ LTGICCG E TS VC E MOV SW CB DSNT ALQDS VCSH NE
KMOB 120041Z 08006KT 7SM FEW035 FEW060 BKN085 28/22 A3004 RMK AO2 LTG DSNT N-E PRESRR CB DSNT ALQDS T02830222
KMOB 120021Z COR 20006KT 7SM VCTS FEW030CB SCT100 30/24 A2998 RMK AO2 LTG DSNT N-E OCNL LTGIC NE AND E TS VC NE AND MOV SW CB DSNT N-E T03000239
KMOB 112356Z 20007KT 10SM FEW045 FEW080 SCT250 31/24 A2999 RMK AO2 LTG DSNT NE AND E AND W SLP150 CB DSNT NE AND E AND W T03060239 10344 20306 53013
KMOB 112256Z 22005KT 10SM FEW049 FEW100 SCT250 32/23 A2995 RMK AO2 SLP139 CB DSNT NE T03220228
KMOB 112156Z 26005KT 10SM FEW050 OVC250 34/22 A2995 RMK AO2 SLP137 T03390217
KMOB 112056Z VRB05KT 10SM FEW050 SCT100 BKN250 33/22 A2995 RMK AO2 SLP137 CB DSNT NE AND SE T03330222 58028
KMOB 111956Z VRB04KT 10SM FEW065 SCT100 BKN250 33/22 A2998 RMK AO2 SLP147 T03330222
KMOB 111856Z VRB06KT 10SM FEW050 SCT150 BKN200 32/24 A3001 RMK AO2 SLP158 T03220239
KMOB 111756Z VRB06KT 10SM FEW037 BKN160 BKN200 33/23 A3003 RMK AO2 SLP165 T03280233 10328 20250 58015
KMOB 111656Z VRB05G17KT 10SM FEW037 SCT160 SCT200 32/24 A3005 RMK AO2 SLP172 T03220239
KMOB 111556Z 33011KT 10SM FEW050 BKN230 31/24 A3007 RMK AO2 SLP179 T03110244
KMOB 111456Z 32012KT 10SM SCT050 BKN200 29/24 A3007 RMK AO2 LTG DSNT SE SLP180 CB DSNT SE T02940244 51012
KMOB 111356Z 29005KT 10SM SCT050 BKN250 27/24 A3006 RMK AO2 SLP175 T02720244
KMOB 111256Z VRB03KT 10SM SCT050 BKN250 26/25 A3006 RMK AO2 SLP175 CB DSNT E-S T02560250
KMOB 111156Z 00000KT 8SM FEW030 SCT050 SCT250 25/24 A3004 RMK AO2 SLP168 T02500244 10261 20244 53006
KMOB 111056Z 00000KT 10SM FEW030 SCT050 SCT250 24/24 A3003 RMK AO2 SLP164 CB DSNT SE-SW T02440244
KMOB 110956Z AUTO 00000KT 10SM CLR 25/24 A3001 RMK AO2 LTG DSNT SE SLP160 T02500244
KMOB 110856Z AUTO 00000KT 10SM BKN049 26/25 A3002 RMK AO2 SLP162 T02560250 56005
KMOB 110756Z AUTO 23004KT 10SM CLR 26/25 A3002 RMK AO2 SLP162 T02560250
KMOB 110656Z AUTO 22003KT 10SM CLR 26/25 A3003 RMK AO2 SLP164 T02610250
KMOB 110556Z AUTO 22004KT 10SM CLR 26/25 A3003 RMK AO2 SLP166 T02610250 10294 20261 403390233 58001
KMOB 110456Z AUTO 21003KT 10SM CLR 26/25 A3005 RMK AO2 SLP171 T02610250
KMOB 110356Z 22004KT 10SM FEW065 FEW100 FEW200 27/25 A3004 RMK AO2 SLP168 T02670250
KMOB 110256Z 20004KT 10SM FEW050 FEW080 FEW200 27/25 A3003 RMK AO2 SLP167 T02670250 53008
KMOB 110156Z 20005KT 10SM FEW050 FEW080 FEW200 27/25 A3002 RMK AO2 SLP161 T02720250
KMOB 110056Z 00000KT 10SM FEW050 FEW100 SCT250 28/24 A3001 RMK AO2 SLP160 CB DSNT N T02830244
KMOB 102356Z 20008KT 10SM FEW050 SCT100 BKN250 29/25 A3001 RMK AO2 SLP159 T02940250 10339 20289 55008
KMOB 102256Z 20008KT 10SM FEW050 FEW110 BKN250 31/24 A3000 RMK AO2 SLP154 T03110244
KMOB 102156Z COR 19011KT 10SM SCT050 SCT110 BKN250 31/24 A3002 RMK AO2 TSB38E53 SLP160 T03110239
KMOB 102144Z 18011KT 10SM TS SCT050CB SCT110 BKN250 31/24 A3003 RMK AO2 TSB38 FRQ LTGICCG NW TS NW MOV SE CB DSNT SE AND S T03110239
KMOB 102132Z 16010KT 10SM SCT050 SCT110 BKN250 32/23 A3003 RMK AO2 LTG DSNT SE CB DSNT SE AND S T03220233
KMOB 102105Z 11008KT 10SM VCTS SCT050CB SCT110 BKN250 32/21 A3003 RMK AO2 LTG DSNT SE FRQ LTGICCG NW TS VC NW MOV SW CB DSNT SE T03170211
KMOB 102056Z 14007KT 10SM SCT050 SCT110 BKN250 31/22 A3004 RMK AO2 SLP168 T03110217 58023
KMOB 102032Z 10006KT 10SM SCT048 SCT065 BKN250 29/22 A3004 RMK AO2 T02890222
KMOB 101956Z 00000KT 10SM VCTS SCT043CB SCT060 BKN250 33/22 A3006 RMK AO2 LTG DSNT E SLP174 FRQ LTGICCG NW TS VC NW MOV SW CB DSNT NE AND E T03330217
KMOB 101917Z VRB04KT 10SM VCTS SCT043CB SCT060 BKN250 33/23 A3008 RMK AO2 LTG DSNT E FRQ LTGICCG NW TS VC NW MOV SW CB DSNT E T03280228
KMOB 101856Z 00000KT 10SM SCT043 SCT060 BKN250 33/22 A3009 RMK AO2 SLP185 T03330222